createdAt,value
2019-02-19T00:01:04.008Z,11.38
2019-02-19T00:03:31.816Z,18.90
2019-02-19T00:05:59.735Z,10.55
2019-02-19T00:08:27.649Z,12.95
2019-02-19T00:10:55.614Z,18.37
2019-02-19T00:13:23.515Z,15.60
2019-02-19T00:15:51.325Z,15.08
2019-02-19T00:18:20.059Z,15.45
2019-02-19T00:20:47.915Z,15.38
2019-02-19T00:23:15.775Z,15.70
2019-02-19T00:25:43.631Z,14.78
2019-02-19T00:28:11.469Z,12.23
2019-02-19T00:30:39.306Z,14.40
2019-02-19T00:33:07.167Z,14.75
2019-02-19T00:35:35.050Z,16.93
2019-02-19T00:38:02.900Z,14.50
2019-02-19T00:40:30.800Z,48.48
2019-02-19T00:42:59.120Z,473.93
2019-02-19T00:45:26.943Z,20.27
2019-02-19T00:47:54.818Z,335.23
2019-02-19T00:50:22.761Z,422.77
2019-02-19T00:52:50.613Z,451.67
2019-02-19T00:55:18.426Z,15.72
2019-02-19T00:57:46.287Z,17.80
2019-02-19T01:00:14.431Z,15.35
2019-02-19T01:02:42.234Z,14.98
2019-02-19T01:05:10.063Z,15.28
2019-02-19T01:07:37.954Z,13.78
2019-02-19T01:10:06.051Z,15.83
2019-02-19T01:12:33.852Z,11.30
2019-02-19T01:15:01.720Z,12.35
2019-02-19T01:17:29.581Z,12.90
2019-02-19T01:19:57.404Z,13.93
2019-02-19T01:22:25.221Z,12.33
2019-02-19T01:24:53.060Z,460.52
2019-02-19T01:27:21.063Z,459.00
2019-02-19T01:29:48.905Z,434.10
2019-02-19T01:32:16.754Z,441.25
2019-02-19T01:34:44.625Z,472.30
2019-02-19T01:37:12.467Z,451.35
2019-02-19T01:39:40.331Z,444.15
2019-02-19T01:42:08.147Z,496.27
2019-02-19T01:44:35.986Z,453.32
2019-02-19T01:47:03.797Z,198.13
2019-02-19T01:49:31.613Z,26.80
2019-02-19T01:51:59.534Z,13.20
2019-02-19T01:54:27.371Z,21.45
2019-02-19T01:56:55.206Z,15.80
2019-02-19T01:59:23.064Z,15.32
2019-02-19T02:01:50.911Z,17.70
2019-02-19T02:04:18.805Z,18.07
2019-02-19T02:06:46.654Z,17.40
2019-02-19T02:09:14.508Z,18.77
2019-02-19T02:11:42.367Z,16.75
2019-02-19T02:14:10.182Z,13.58
2019-02-19T02:16:37.998Z,15.70
2019-02-19T02:19:05.858Z,12.23
2019-02-19T02:21:33.657Z,13.22
2019-02-19T02:24:02.371Z,12.05
2019-02-19T02:26:30.196Z,12.10
2019-02-19T02:28:58.043Z,13.30
2019-02-19T02:31:25.858Z,16.10
2019-02-19T02:33:53.865Z,12.00
2019-02-19T02:36:21.721Z,11.70
2019-02-19T02:38:49.512Z,20.48
2019-02-19T02:41:17.370Z,13.95
2019-02-19T02:43:45.720Z,11.43
2019-02-19T02:46:13.590Z,11.60
2019-02-19T02:48:41.405Z,10.20
2019-02-19T02:51:09.241Z,14.65
2019-02-19T02:53:37.120Z,13.00
2019-02-19T02:56:04.965Z,17.10
2019-02-19T02:58:32.820Z,14.05
2019-02-19T03:01:00.677Z,13.25
2019-02-19T03:03:28.494Z,15.58
2019-02-19T03:06:23.732Z,8.83
2019-02-19T03:08:51.688Z,9.95
2019-02-19T03:11:19.538Z,12.70
2019-02-19T03:13:47.351Z,9.83
2019-02-19T03:16:15.199Z,10.32
2019-02-19T03:18:43.023Z,7.85
2019-02-19T03:21:10.858Z,9.08
2019-02-19T03:23:38.759Z,11.00
2019-02-19T03:26:06.603Z,8.58
2019-02-19T03:28:34.397Z,9.85
2019-02-19T03:31:02.248Z,9.45
2019-02-19T03:33:30.095Z,8.28
2019-02-19T03:35:57.951Z,9.40
2019-02-19T03:38:25.769Z,11.33
2019-02-19T03:40:53.623Z,9.90
2019-02-19T03:43:21.583Z,12.03
2019-02-19T03:45:49.429Z,11.93
2019-02-19T03:48:17.292Z,11.70
2019-02-19T03:50:45.108Z,11.03
2019-02-19T03:53:12.988Z,14.83
2019-02-19T03:55:40.812Z,12.73
2019-02-19T03:58:08.636Z,14.45
2019-02-19T04:00:36.662Z,13.00
2019-02-19T04:03:04.530Z,13.53
2019-02-19T04:05:32.443Z,15.43
2019-02-19T04:08:00.287Z,16.20
2019-02-19T04:10:28.412Z,14.98
2019-02-19T04:12:56.252Z,16.45
2019-02-19T04:15:24.078Z,18.40
2019-02-19T04:17:52.260Z,13.00
2019-02-19T04:20:20.083Z,13.20
2019-02-19T04:22:47.927Z,16.60
2019-02-19T04:25:15.873Z,13.32
2019-02-19T04:27:43.686Z,16.20
2019-02-19T04:30:11.509Z,12.60
2019-02-19T04:32:39.347Z,16.50
2019-02-19T04:35:07.264Z,16.80
2019-02-19T04:37:35.194Z,13.55
2019-02-19T04:40:03.397Z,13.83
2019-02-19T04:42:31.334Z,14.55
2019-02-19T04:44:59.254Z,15.10
2019-02-19T04:47:27.081Z,16.82
2019-02-19T04:49:54.919Z,14.28
2019-02-19T04:52:22.731Z,14.18
2019-02-19T04:54:50.615Z,14.18
2019-02-19T04:57:18.477Z,11.60
2019-02-19T04:59:46.333Z,15.78
2019-02-19T05:02:14.175Z,16.35
2019-02-19T05:04:42.022Z,15.30
2019-02-19T05:07:10.116Z,14.68
2019-02-19T05:09:37.959Z,17.25
2019-02-19T05:12:05.868Z,17.95
2019-02-19T05:14:33.683Z,16.95
2019-02-19T05:17:01.530Z,15.45
2019-02-19T05:19:29.332Z,14.83
2019-02-19T05:21:57.195Z,16.42
2019-02-19T05:24:25.012Z,16.48
2019-02-19T05:26:52.959Z,18.07
2019-02-19T05:29:20.772Z,14.63
2019-02-19T05:31:48.624Z,17.87
2019-02-19T05:34:16.401Z,21.15
2019-02-19T05:36:44.278Z,21.45
2019-02-19T05:39:12.216Z,16.17
2019-02-19T05:41:40.033Z,22.05
2019-02-19T05:44:07.875Z,17.42
2019-02-19T05:46:35.711Z,16.73
2019-02-19T05:49:03.566Z,17.73
2019-02-19T05:51:31.406Z,14.35
2019-02-19T05:53:59.206Z,14.55
2019-02-19T05:56:26.992Z,13.58
2019-02-19T05:58:54.883Z,16.15
2019-02-19T06:01:22.714Z,13.13
2019-02-19T06:03:50.547Z,18.45
2019-02-19T06:06:18.416Z,16.62
2019-02-19T06:08:46.286Z,16.00
2019-02-19T06:11:14.186Z,15.45
2019-02-19T06:13:42.110Z,13.03
2019-02-19T06:16:09.927Z,13.53
2019-02-19T06:18:37.766Z,15.10
2019-02-19T06:21:05.626Z,15.23
2019-02-19T06:23:33.479Z,11.30
2019-02-19T06:26:01.694Z,13.80
2019-02-19T06:28:29.527Z,12.00
2019-02-19T06:30:57.575Z,13.38
2019-02-19T06:33:25.402Z,11.75
2019-02-19T06:35:53.212Z,11.55
2019-02-19T06:38:21.072Z,11.40
2019-02-19T06:40:48.899Z,15.70
2019-02-19T06:43:16.744Z,11.45
2019-02-19T06:45:44.544Z,11.60
2019-02-19T06:48:12.377Z,15.18
2019-02-19T06:50:40.211Z,12.78
2019-02-19T06:53:08.558Z,9.90
2019-02-19T06:55:36.442Z,11.28
2019-02-19T06:58:04.254Z,10.55
2019-02-19T07:00:32.125Z,12.70
2019-02-19T07:03:22.455Z,16.35
2019-02-19T07:05:50.266Z,12.07
2019-02-19T07:08:21.971Z,10.45
2019-02-19T07:10:49.895Z,10.65
2019-02-19T07:13:17.737Z,8.93
2019-02-19T07:15:45.551Z,11.68
2019-02-19T07:18:13.451Z,9.23
2019-02-19T07:20:41.259Z,11.70
2019-02-19T07:23:09.099Z,9.75
2019-02-19T07:25:36.934Z,10.03
2019-02-19T07:28:04.754Z,9.33
2019-02-19T07:30:32.618Z,11.22
2019-02-19T07:33:00.463Z,8.95
2019-02-19T07:35:28.310Z,10.13
2019-02-19T07:37:56.182Z,7.67
2019-02-19T07:40:24.040Z,12.28
2019-02-19T07:42:52.227Z,10.75
2019-02-19T07:45:20.081Z,10.45
2019-02-19T07:47:47.923Z,10.85
2019-02-19T07:50:15.792Z,10.03
2019-02-19T07:52:43.707Z,10.80
2019-02-19T07:55:11.219Z,8.05
2019-02-19T07:57:39.186Z,7.85
2019-02-19T08:00:08.255Z,11.75
2019-02-19T08:02:36.092Z,8.75
2019-02-19T08:05:04.607Z,7.33
2019-02-19T08:07:32.513Z,9.65
2019-02-19T08:10:00.801Z,9.85
2019-02-19T08:12:28.735Z,8.75
2019-02-19T08:14:56.836Z,7.30
2019-02-19T08:17:32.869Z,9.90
2019-02-19T08:19:54.727Z,7.10
2019-02-19T08:22:22.618Z,12.00
2019-02-19T08:24:50.466Z,9.65
2019-02-19T08:27:18.439Z,7.15
2019-02-19T08:29:46.623Z,7.62
2019-02-19T08:32:14.608Z,6.50
2019-02-19T08:34:42.540Z,9.50
2019-02-19T08:37:10.398Z,6.45
2019-02-19T08:39:38.239Z,6.70
2019-02-19T08:42:06.080Z,5.83
2019-02-19T08:44:33.964Z,9.33
2019-02-19T08:47:01.773Z,6.53
2019-02-19T08:49:29.641Z,7.05
2019-02-19T08:51:57.523Z,6.87
2019-02-19T08:54:25.381Z,6.90
2019-02-19T08:56:53.398Z,5.85
2019-02-19T08:59:21.331Z,7.92
2019-02-19T09:01:49.150Z,8.65
2019-02-19T09:04:17.031Z,7.28
2019-02-19T09:06:44.865Z,7.25
2019-02-19T09:09:12.726Z,7.03
2019-02-19T09:11:40.553Z,8.73
2019-02-19T09:14:08.458Z,8.30
2019-02-19T09:16:36.271Z,7.30
2019-02-19T09:19:04.123Z,9.33
2019-02-19T09:21:31.970Z,9.83
2019-02-19T09:24:09.006Z,6.50
2019-02-19T09:26:30.028Z,7.12
2019-02-19T09:28:57.905Z,6.03
2019-02-19T09:31:25.738Z,7.92
2019-02-19T09:33:53.657Z,10.38
2019-02-19T09:36:21.481Z,6.15
2019-02-19T09:38:49.348Z,7.10
2019-02-19T09:41:17.206Z,8.50
2019-02-19T09:43:45.039Z,5.83
2019-02-19T09:48:46.670Z,7.53
2019-02-19T09:51:20.911Z,8.05
2019-02-19T09:53:51.157Z,8.53
2019-02-19T09:56:18.989Z,7.47
2019-02-19T09:58:46.849Z,6.15
2019-02-19T10:01:14.756Z,6.60
2019-02-19T10:03:42.659Z,5.80
2019-02-19T10:06:10.534Z,6.20
2019-02-19T10:08:38.444Z,7.65
2019-02-19T10:11:06.316Z,6.65
2019-02-19T10:13:34.181Z,5.75
2019-02-19T10:16:02.025Z,8.95
2019-02-19T10:18:29.873Z,6.83
2019-02-19T10:20:59.672Z,6.30
2019-02-19T10:23:27.520Z,6.10
2019-02-19T10:25:55.385Z,6.28
2019-02-19T10:28:23.283Z,8.65
2019-02-19T10:30:51.092Z,7.55
2019-02-19T10:33:18.985Z,6.00
2019-02-19T10:35:47.099Z,8.93
2019-02-19T10:38:14.938Z,7.08
2019-02-19T10:40:42.765Z,5.75
2019-02-19T10:43:10.638Z,8.80
2019-02-19T10:45:38.467Z,7.58
2019-02-19T10:48:06.342Z,6.30
2019-02-19T10:50:34.201Z,8.45
2019-02-19T10:53:02.071Z,7.90
2019-02-19T10:55:29.965Z,6.05
2019-02-19T10:57:57.852Z,8.05
2019-02-19T11:00:25.692Z,8.30
2019-02-19T11:02:53.562Z,7.05
2019-02-19T11:05:21.408Z,8.73
2019-02-19T11:07:49.253Z,7.87
2019-02-19T11:10:17.114Z,9.90
2019-02-19T11:12:45.017Z,10.32
2019-02-19T11:15:13.194Z,8.23
2019-02-19T11:17:41.082Z,11.60
2019-02-19T11:20:10.489Z,8.05
2019-02-19T11:22:38.402Z,11.18
2019-02-19T11:25:09.156Z,7.97
2019-02-19T11:27:37.051Z,8.53
2019-02-19T11:30:05.485Z,7.95
2019-02-19T11:32:33.304Z,8.35
2019-02-19T11:35:01.189Z,9.30
2019-02-19T11:37:29.076Z,8.30
2019-02-19T11:39:56.983Z,7.33
2019-02-19T11:42:24.863Z,11.10
2019-02-19T11:44:52.724Z,11.45
2019-02-19T11:47:26.484Z,9.33
2019-02-19T11:49:50.373Z,9.43
2019-02-19T11:52:18.201Z,7.03
2019-02-19T11:54:46.073Z,9.40
2019-02-19T11:57:13.963Z,13.60
2019-02-19T11:59:41.874Z,8.65
2019-02-19T12:02:13.433Z,7.30
2019-02-19T12:04:41.333Z,9.58
2019-02-19T12:07:09.170Z,9.13
2019-02-19T12:09:37.078Z,9.45
2019-02-19T12:12:04.925Z,10.60
2019-02-19T12:14:32.830Z,9.23
2019-02-19T12:17:00.758Z,13.18
2019-02-19T12:19:28.641Z,16.80
2019-02-19T12:21:56.516Z,8.50
2019-02-19T12:24:24.359Z,10.25
2019-02-19T12:26:52.195Z,5.33
2019-02-19T12:29:20.070Z,5.97
2019-02-19T12:31:47.954Z,6.15
2019-02-19T12:34:15.821Z,7.10
2019-02-19T12:36:43.655Z,7.00
2019-02-19T12:39:11.516Z,5.75
2019-02-19T12:41:39.403Z,8.03
2019-02-19T12:44:07.269Z,6.10
2019-02-19T12:46:35.133Z,6.42
2019-02-19T12:49:02.963Z,7.05
2019-02-19T12:51:30.841Z,5.22
2019-02-19T12:53:58.699Z,7.67
2019-02-19T12:56:26.535Z,6.83
2019-02-19T12:58:54.397Z,6.05
2019-02-19T13:01:22.258Z,7.85
2019-02-19T13:03:50.083Z,8.90
2019-02-19T13:06:17.976Z,6.95
2019-02-19T13:08:45.885Z,14.28
2019-02-19T13:11:13.771Z,7.78
2019-02-19T13:13:41.604Z,6.45
2019-02-19T13:16:09.434Z,8.03
2019-02-19T13:18:37.612Z,10.93
2019-02-19T13:21:05.454Z,11.57
2019-02-19T13:23:33.284Z,7.60
2019-02-19T13:26:01.127Z,7.08
2019-02-19T13:28:29.067Z,7.40
2019-02-19T13:30:57.047Z,7.85
2019-02-19T13:33:24.893Z,6.05
2019-02-19T13:35:52.761Z,7.58
2019-02-19T13:38:20.613Z,7.22
2019-02-19T13:40:48.482Z,5.95
2019-02-19T13:43:16.357Z,9.38
2019-02-19T13:45:44.325Z,6.03
2019-02-19T13:48:12.184Z,15.75
2019-02-19T13:50:39.997Z,9.25
2019-02-19T13:53:15.101Z,11.40
2019-02-19T13:55:46.294Z,12.80
2019-02-19T13:58:14.146Z,9.30
2019-02-19T14:00:43.714Z,8.60
2019-02-19T14:03:11.616Z,11.18
2019-02-19T14:05:39.467Z,9.38
2019-02-19T14:08:14.300Z,11.03
2019-02-19T14:10:37.166Z,10.03
2019-02-19T14:13:05.062Z,7.90
2019-02-19T14:15:58.720Z,12.30
2019-02-19T14:18:46.192Z,8.70
2019-02-19T14:21:32.586Z,13.65
2019-02-19T14:24:20.208Z,12.05
2019-02-19T14:27:26.012Z,9.90
2019-02-19T14:30:13.445Z,10.13
2019-02-19T14:33:03.596Z,9.73
2019-02-19T14:35:51.057Z,10.93
2019-02-19T14:38:37.433Z,9.23
2019-02-19T14:41:24.907Z,10.18
2019-02-19T14:44:01.179Z,11.93
2019-02-19T14:46:54.875Z,13.03
2019-02-19T14:49:46.976Z,10.13
2019-02-19T14:52:26.379Z,17.48
2019-02-19T14:55:06.436Z,15.25
2019-02-19T14:57:52.704Z,10.43
2019-02-19T15:00:55.353Z,8.60
2019-02-19T15:03:41.384Z,9.30
2019-02-19T15:06:17.496Z,7.80
2019-02-19T15:09:07.586Z,8.58
2019-02-19T15:11:58.115Z,11.57
2019-02-19T15:14:46.530Z,11.03
2019-02-19T15:17:34.109Z,13.45
2019-02-19T15:20:24.335Z,11.22
2019-02-19T15:23:27.149Z,10.05
2019-02-19T15:26:15.096Z,13.68
2019-02-19T15:29:01.407Z,16.15
2019-02-19T15:31:40.418Z,15.50
2019-02-19T15:34:26.812Z,18.80
2019-02-19T15:37:17.354Z,13.72
2019-02-19T15:40:03.665Z,11.80
2019-02-19T15:42:54.240Z,9.73
2019-02-19T15:45:41.662Z,12.85
2019-02-19T15:48:44.795Z,10.93
2019-02-19T15:51:22.001Z,12.50
2019-02-19T15:54:08.201Z,14.87
2019-02-19T15:56:54.391Z,13.05
2019-02-19T15:59:44.970Z,12.25
2019-02-19T16:02:31.377Z,13.75
2019-02-19T16:05:09.827Z,13.13
2019-02-19T16:08:09.223Z,12.43
2019-02-19T16:10:45.409Z,9.93
2019-02-19T16:13:27.740Z,10.85
2019-02-19T16:16:14.207Z,16.62
2019-02-19T16:18:48.831Z,9.95
2019-02-19T16:21:31.321Z,11.85
2019-02-19T16:24:17.890Z,12.28
2019-02-19T16:27:17.391Z,17.52
2019-02-19T16:30:03.549Z,15.45
2019-02-19T16:33:00.244Z,13.45
2019-02-19T16:35:37.073Z,11.57
2019-02-19T16:38:20.708Z,10.65
2019-02-19T16:41:08.154Z,11.97
2019-02-19T16:43:51.777Z,9.88
2019-02-19T16:46:45.249Z,14.95
2019-02-19T16:49:35.584Z,12.98
2019-02-19T16:52:21.569Z,15.23
2019-02-19T16:55:11.392Z,11.95
2019-02-19T17:00:55.878Z,13.22
2019-02-19T17:03:37.956Z,16.35
2019-02-19T17:06:21.334Z,17.45
2019-02-19T17:08:55.603Z,10.53
2019-02-19T17:11:42.175Z,12.13
2019-02-19T17:14:33.226Z,14.60
2019-02-19T17:17:22.229Z,13.95
2019-02-19T17:20:21.033Z,15.70
2019-02-19T17:22:59.584Z,13.45
2019-02-19T17:25:51.569Z,14.25
2019-02-19T17:28:43.090Z,13.40
2019-02-19T17:31:39.810Z,11.70
2019-02-19T17:34:36.165Z,15.72
2019-02-19T17:37:23.174Z,16.25
2019-02-19T17:40:13.659Z,15.48
2019-02-19T17:43:00.023Z,13.48
2019-02-19T17:45:41.030Z,13.08
2019-02-19T17:48:19.866Z,13.22
2019-02-19T17:51:07.387Z,16.27
2019-02-19T17:53:59.337Z,15.90
2019-02-19T17:56:55.983Z,11.40
2019-02-19T17:59:43.838Z,12.95
2019-02-19T18:02:31.274Z,13.32
2019-02-19T18:05:18.735Z,12.82
2019-02-19T18:08:02.499Z,15.45
2019-02-19T18:10:36.303Z,13.78
2019-02-19T18:13:33.095Z,15.08
2019-02-19T18:16:19.209Z,13.38
2019-02-19T18:18:50.155Z,13.55
2019-02-19T18:21:18.819Z,18.32
2019-02-19T18:23:46.813Z,14.40
2019-02-19T18:26:14.726Z,20.27
2019-02-19T18:28:42.648Z,18.65
2019-02-19T18:31:10.955Z,16.00
2019-02-19T18:33:38.872Z,17.05
2019-02-19T18:36:06.774Z,13.13
2019-02-19T18:38:34.639Z,15.90
2019-02-19T18:41:03.716Z,16.67
2019-02-19T18:43:31.856Z,19.22
2019-02-19T18:46:01.297Z,14.58
2019-02-19T18:48:29.292Z,15.78
2019-02-19T18:50:58.464Z,14.35
2019-02-19T18:53:26.933Z,15.50
2019-02-19T18:55:55.067Z,16.15
2019-02-19T18:58:22.932Z,16.62
2019-02-19T19:00:50.851Z,16.25
2019-02-19T19:03:18.817Z,20.45
2019-02-19T19:05:46.706Z,17.55
2019-02-19T19:08:14.611Z,17.90
2019-02-19T19:10:42.603Z,18.12
2019-02-19T19:13:10.508Z,20.90
2019-02-19T19:15:38.383Z,29.63
2019-02-19T19:18:06.302Z,27.75
2019-02-19T19:20:34.228Z,30.40
2019-02-19T19:23:02.094Z,26.52
2019-02-19T19:27:55.492Z,23.67
2019-02-19T19:30:23.466Z,23.35
2019-02-19T19:32:51.381Z,20.32
2019-02-19T19:35:19.287Z,21.50
2019-02-19T19:37:47.187Z,20.37
2019-02-19T19:40:15.094Z,19.45
2019-02-19T19:42:42.991Z,20.10
2019-02-19T19:45:11.083Z,23.47
2019-02-19T19:47:38.969Z,18.30
2019-02-19T19:50:07.462Z,18.82
2019-02-19T19:52:35.347Z,22.75
2019-02-19T19:55:03.639Z,20.50
2019-02-19T19:57:31.683Z,22.75
2019-02-19T19:59:59.561Z,22.87
2019-02-19T20:02:27.465Z,24.18
2019-02-19T20:04:55.360Z,22.90
2019-02-19T20:07:23.236Z,20.08
2019-02-19T20:09:51.142Z,17.90
2019-02-19T20:12:19.015Z,17.62
2019-02-19T20:14:47.008Z,17.27
2019-02-19T20:17:14.942Z,17.85
2019-02-19T20:19:43.081Z,17.98
2019-02-19T20:22:10.964Z,19.80
2019-02-19T20:24:38.902Z,19.50
2019-02-19T20:27:06.845Z,17.85
2019-02-19T20:29:34.749Z,19.82
2019-02-19T20:32:02.703Z,15.08
2019-02-19T20:34:30.672Z,16.12
2019-02-19T20:36:58.582Z,16.00
2019-02-19T20:39:26.443Z,18.98
2019-02-19T20:41:54.359Z,20.65
2019-02-19T20:44:22.341Z,21.68
2019-02-19T20:46:50.312Z,21.90
2019-02-19T20:49:18.267Z,17.25
2019-02-19T20:51:46.123Z,19.48
2019-02-19T20:54:14.075Z,21.05
2019-02-19T20:56:42.319Z,18.67
2019-02-19T20:59:10.231Z,19.92
2019-02-19T21:01:38.097Z,17.40
2019-02-19T21:04:06.223Z,18.95
2019-02-19T21:06:34.120Z,18.35
2019-02-19T21:09:02.186Z,20.10
2019-02-19T21:11:30.157Z,21.97
2019-02-19T21:13:58.370Z,21.73
2019-02-19T21:16:26.249Z,22.75
2019-02-19T21:18:54.135Z,23.85
2019-02-19T21:21:22.057Z,19.77
2019-02-19T21:23:49.924Z,19.77
2019-02-19T21:26:18.751Z,21.07
2019-02-19T21:28:46.784Z,24.30
2019-02-19T21:31:14.743Z,23.73
2019-02-19T21:33:42.714Z,18.82
2019-02-19T21:36:10.625Z,20.17
2019-02-19T21:38:38.571Z,19.45
2019-02-19T21:41:07.768Z,22.17
2019-02-19T21:43:36.045Z,17.17
2019-02-19T21:46:03.923Z,17.62
2019-02-19T21:48:31.836Z,23.50
2019-02-19T21:50:59.661Z,23.07
2019-02-19T21:53:27.567Z,20.37
2019-02-19T21:55:55.532Z,21.40
2019-02-19T21:58:23.442Z,19.60
2019-02-19T22:00:51.331Z,25.05
2019-02-19T22:03:19.262Z,30.20
2019-02-19T22:05:47.135Z,26.20
2019-02-19T22:08:15.022Z,29.82
2019-02-19T22:10:42.911Z,32.45
2019-02-19T22:13:10.828Z,24.43
2019-02-19T22:15:38.694Z,24.15
2019-02-19T22:18:06.587Z,34.92
2019-02-19T22:20:49.025Z,34.48
2019-02-19T22:23:16.962Z,28.87
2019-02-19T22:25:44.775Z,28.83
2019-02-19T22:28:12.686Z,26.35
2019-02-19T22:30:40.583Z,26.27
2019-02-19T22:33:08.458Z,25.27
2019-02-19T22:35:36.332Z,28.47
2019-02-19T22:38:04.196Z,33.48
2019-02-19T22:40:32.106Z,30.55
2019-02-19T22:42:59.986Z,30.65
2019-02-19T22:45:27.893Z,28.42
2019-02-19T22:47:55.735Z,28.25
2019-02-19T22:50:23.607Z,27.73
2019-02-19T22:52:51.476Z,56.53
2019-02-19T22:55:31.349Z,36.17
2019-02-19T22:57:59.176Z,32.63
2019-02-19T23:00:57.845Z,37.17
2019-02-19T23:03:26.179Z,33.75
2019-02-19T23:05:54.223Z,70.57
2019-02-19T23:08:22.119Z,81.40
2019-02-19T23:10:49.972Z,54.95
2019-02-19T23:13:17.858Z,39.08
2019-02-19T23:15:45.706Z,34.73
2019-02-19T23:18:13.546Z,34.40
2019-02-19T23:20:41.506Z,30.00
2019-02-19T23:23:09.347Z,27.93
2019-02-19T23:25:37.210Z,29.82
2019-02-19T23:28:05.091Z,32.95
2019-02-19T23:30:33.764Z,26.82
2019-02-19T23:33:01.676Z,29.07
2019-02-19T23:35:49.129Z,31.27
2019-02-19T23:38:17.010Z,33.55
2019-02-19T23:40:44.829Z,31.60
2019-02-19T23:43:12.664Z,35.17
2019-02-19T23:45:40.476Z,26.05
2019-02-19T23:48:08.349Z,36.68
2019-02-19T23:50:36.187Z,32.78
2019-02-19T23:53:04.042Z,33.23
2019-02-19T23:55:31.968Z,37.98
2019-02-19T23:58:00.204Z,36.13
